AFR1304 LFPG-LIRF
Flight info
| Callsign | AFR1304 |
|---|---|
| Flight time | 1h 31m |
| Altitude | 37000 |
| Route | OKASI DCT OKEKO DCT MOU DCT MADIV DCT MOKIP DCT TUFTA DCT KOGAS DCT MEDAM DCT NITAM DCT MOGBO DCT ELB/N0439F360 DCT ELKAP |
| Aircraft | A320/M-SDE3FGHIRWY/LB1 |
Departure
| Time | 2026-05-08 12:49 |
|---|---|
| Airport | Charles de Gaulle International Airport (LFPG) |
Arrival
| Time | 2026-05-08 14:20 |
|---|---|
| Airport | Rome–Fiumicino Leonardo da Vinci International Airport (LIRF) |
| Time | Latitude | Longitude | Altitude | Speed | Heading |
|---|---|---|---|---|---|
| 2026-05-08 12:06 | 49.00711 | 2.57441 | 355 ft | 0 kts | 208° |
| 2026-05-08 12:38 | 49.00725 | 2.57452 | 360 ft | 3 kts | 208° |
| 2026-05-08 12:39 | 49.00740 | 2.57464 | 356 ft | 3 kts | 214° |
| 2026-05-08 12:39 | 49.00755 | 2.57483 | 362 ft | 3 kts | 232° |
| 2026-05-08 12:39 | 49.00765 | 2.57509 | 361 ft | 3 kts | 254° |
| 2026-05-08 12:39 | 49.00768 | 2.57531 | 364 ft | 1 kts | 265° |
| 2026-05-08 12:40 | 49.00768 | 2.57535 | 364 ft | 0 kts | 265° |
| 2026-05-08 12:41 | 49.00768 | 2.57527 | 364 ft | 3 kts | 265° |
| 2026-05-08 12:42 | 49.00764 | 2.57459 | 359 ft | 10 kts | 265° |
| 2026-05-08 12:42 | 49.00756 | 2.57321 | 354 ft | 14 kts | 265° |
| 2026-05-08 12:42 | 49.00793 | 2.57215 | 360 ft | 12 kts | 346° |
| 2026-05-08 12:42 | 49.00854 | 2.57128 | 357 ft | 15 kts | 271° |
| 2026-05-08 12:43 | 49.00847 | 2.56970 | 358 ft | 14 kts | 265° |
| 2026-05-08 12:43 | 49.00840 | 2.56831 | 354 ft | 12 kts | 265° |
| 2026-05-08 12:43 | 49.00830 | 2.56665 | 354 ft | 20 kts | 265° |
| 2026-05-08 12:43 | 49.00814 | 2.56417 | 360 ft | 27 kts | 263° |
| 2026-05-08 12:44 | 49.00787 | 2.56126 | 354 ft | 28 kts | 263° |
| 2026-05-08 12:44 | 49.00761 | 2.55845 | 354 ft | 26 kts | 261° |
| 2026-05-08 12:44 | 49.00736 | 2.55572 | 362 ft | 22 kts | 262° |
| 2026-05-08 12:44 | 49.00716 | 2.55351 | 359 ft | 19 kts | 251° |
| 2026-05-08 12:45 | 49.00621 | 2.55256 | 361 ft | 18 kts | 163° |
| 2026-05-08 12:45 | 49.00500 | 2.55306 | 359 ft | 18 kts | 165° |
| 2026-05-08 12:45 | 49.00379 | 2.55357 | 357 ft | 18 kts | 164° |
| 2026-05-08 12:45 | 49.00256 | 2.55412 | 360 ft | 18 kts | 164° |
| 2026-05-08 12:46 | 49.00133 | 2.55465 | 354 ft | 18 kts | 163° |
| 2026-05-08 12:46 | 49.00012 | 2.55518 | 354 ft | 18 kts | 164° |
| 2026-05-08 12:46 | 48.99893 | 2.55593 | 354 ft | 19 kts | 141° |
| 2026-05-08 12:46 | 48.99831 | 2.55749 | 354 ft | 12 kts | 110° |
| 2026-05-08 12:47 | 48.99757 | 2.55805 | 358 ft | 14 kts | 175° |
| 2026-05-08 12:47 | 48.99662 | 2.55817 | 358 ft | 13 kts | 175° |
| 2026-05-08 12:47 | 48.99605 | 2.55892 | 357 ft | 12 kts | 104° |
| 2026-05-08 12:47 | 48.99605 | 2.55928 | 353 ft | 0 kts | 85° |
| 2026-05-08 12:48 | 48.99605 | 2.55935 | 353 ft | 8 kts | 85° |
| 2026-05-08 12:48 | 48.99633 | 2.56415 | 359 ft | 80 kts | 85° |
| 2026-05-08 12:48 | 48.99694 | 2.57571 | 352 ft | 137 kts | 85° |
| 2026-05-08 12:48 | 48.99789 | 2.59224 | 525 ft | 167 kts | 84° |
| 2026-05-08 12:49 | 48.99881 | 2.61021 | 1142 ft | 172 kts | 84° |
| 2026-05-08 12:49 | 48.99987 | 2.62840 | 1883 ft | 173 kts | 84° |
| 2026-05-08 12:49 | 49.00105 | 2.64732 | 2370 ft | 188 kts | 85° |
| 2026-05-08 12:49 | 49.00216 | 2.66801 | 2810 ft | 203 kts | 85° |
| 2026-05-08 12:50 | 49.00326 | 2.69024 | 3260 ft | 221 kts | 86° |
| 2026-05-08 12:50 | 49.00443 | 2.71481 | 3635 ft | 244 kts | 86° |
| 2026-05-08 12:50 | 49.00571 | 2.74151 | 4215 ft | 258 kts | 86° |
| 2026-05-08 12:50 | 49.00705 | 2.76917 | 5017 ft | 265 kts | 87° |
| 2026-05-08 12:51 | 49.00584 | 2.79722 | 5827 ft | 269 kts | 98° |
| 2026-05-08 12:51 | 48.99988 | 2.85424 | 7443 ft | 277 kts | 100° |
| 2026-05-08 12:51 | 48.99663 | 2.88335 | 8195 ft | 282 kts | 100° |
| 2026-05-08 12:52 | 48.99336 | 2.91301 | 8959 ft | 286 kts | 100° |
| 2026-05-08 12:52 | 48.98564 | 2.97330 | 10438 ft | 294 kts | 114° |
| 2026-05-08 12:52 | 48.97505 | 2.99768 | 10928 ft | 302 kts | 137° |
| 2026-05-08 12:53 | 48.95682 | 3.01458 | 11160 ft | 317 kts | 165° |
| 2026-05-08 12:53 | 48.93483 | 3.01711 | 11683 ft | 322 kts | 191° |
| 2026-05-08 12:53 | 48.91391 | 3.00496 | 12374 ft | 324 kts | 211° |
| 2026-05-08 12:53 | 48.89448 | 2.98728 | 13106 ft | 327 kts | 212° |
| 2026-05-08 12:54 | 48.87503 | 2.96919 | 13841 ft | 329 kts | 210° |
| 2026-05-08 12:54 | 48.85402 | 2.95501 | 14453 ft | 333 kts | 202° |
| 2026-05-08 12:54 | 48.83231 | 2.94237 | 15089 ft | 336 kts | 202° |
| 2026-05-08 12:54 | 48.81035 | 2.92967 | 15718 ft | 338 kts | 202° |
| 2026-05-08 12:55 | 48.78827 | 2.91689 | 16340 ft | 341 kts | 202° |
| 2026-05-08 12:55 | 48.76600 | 2.90400 | 16958 ft | 344 kts | 202° |
| 2026-05-08 12:55 | 48.74354 | 2.89102 | 17559 ft | 347 kts | 202° |
| 2026-05-08 12:55 | 48.72093 | 2.87795 | 18166 ft | 350 kts | 202° |
| 2026-05-08 12:56 | 48.69811 | 2.86477 | 18707 ft | 352 kts | 202° |
| 2026-05-08 12:56 | 48.67511 | 2.85150 | 19230 ft | 355 kts | 202° |
| 2026-05-08 12:56 | 48.65193 | 2.83817 | 19770 ft | 357 kts | 202° |
| 2026-05-08 12:56 | 48.62897 | 2.82500 | 20291 ft | 360 kts | 202° |
| 2026-05-08 12:57 | 48.60544 | 2.81145 | 20838 ft | 362 kts | 202° |
| 2026-05-08 12:57 | 48.58185 | 2.79784 | 21354 ft | 365 kts | 202° |
| 2026-05-08 12:57 | 48.55809 | 2.78414 | 21876 ft | 367 kts | 202° |
| 2026-05-08 12:57 | 48.53410 | 2.77036 | 22397 ft | 370 kts | 202° |
| 2026-05-08 12:58 | 48.50997 | 2.75652 | 22893 ft | 372 kts | 202° |
| 2026-05-08 12:58 | 48.48568 | 2.74264 | 23406 ft | 375 kts | 202° |
| 2026-05-08 12:58 | 48.46118 | 2.72863 | 23849 ft | 378 kts | 203° |
| 2026-05-08 12:58 | 48.43647 | 2.71452 | 24235 ft | 381 kts | 203° |
| 2026-05-08 12:59 | 48.41156 | 2.70035 | 24610 ft | 384 kts | 203° |
| 2026-05-08 12:59 | 48.38643 | 2.68608 | 24955 ft | 388 kts | 204° |
| 2026-05-08 12:59 | 48.36964 | 2.67654 | 25174 ft | 391 kts | 204° |
| 2026-05-08 12:59 | 48.34412 | 2.66203 | 25516 ft | 394 kts | 205° |
| 2026-05-08 13:00 | 48.31780 | 2.64943 | 25852 ft | 402 kts | 196° |
| 2026-05-08 13:00 | 48.28039 | 2.64518 | 26281 ft | 415 kts | 180° |
| 2026-05-08 13:00 | 48.25168 | 2.65273 | 26597 ft | 425 kts | 167° |
| 2026-05-08 13:00 | 48.23283 | 2.66324 | 26803 ft | 432 kts | 158° |
| 2026-05-08 13:01 | 48.20582 | 2.68376 | 27096 ft | 437 kts | 156° |
| 2026-05-08 13:01 | 48.17865 | 2.70470 | 27335 ft | 442 kts | 156° |
| 2026-05-08 13:01 | 48.15120 | 2.72587 | 27590 ft | 446 kts | 156° |
| 2026-05-08 13:01 | 48.12348 | 2.74721 | 27870 ft | 450 kts | 156° |
| 2026-05-08 13:02 | 48.09551 | 2.76861 | 28149 ft | 453 kts | 156° |
| 2026-05-08 13:02 | 48.06714 | 2.78953 | 28395 ft | 457 kts | 158° |
| 2026-05-08 13:02 | 48.03800 | 2.80921 | 28531 ft | 463 kts | 160° |
| 2026-05-08 13:02 | 48.00816 | 2.82802 | 28666 ft | 468 kts | 161° |
| 2026-05-08 13:03 | 47.97781 | 2.84648 | 28812 ft | 474 kts | 162° |
| 2026-05-08 13:03 | 47.94713 | 2.86506 | 28988 ft | 478 kts | 161° |
| 2026-05-08 13:03 | 47.91632 | 2.88395 | 29217 ft | 481 kts | 161° |
| 2026-05-08 13:03 | 47.88533 | 2.90324 | 29460 ft | 484 kts | 161° |
| 2026-05-08 13:04 | 47.85427 | 2.92281 | 29686 ft | 486 kts | 160° |
| 2026-05-08 13:04 | 47.82305 | 2.94265 | 29914 ft | 489 kts | 160° |
| 2026-05-08 13:04 | 47.79172 | 2.96258 | 30149 ft | 491 kts | 161° |
| 2026-05-08 13:04 | 47.76025 | 2.98251 | 30326 ft | 492 kts | 160° |
| 2026-05-08 13:05 | 47.72872 | 3.00242 | 30550 ft | 493 kts | 160° |
| 2026-05-08 13:05 | 47.69706 | 3.02236 | 30763 ft | 494 kts | 160° |
| 2026-05-08 13:05 | 47.66550 | 3.04223 | 31061 ft | 492 kts | 161° |
| 2026-05-08 13:05 | 47.63403 | 3.06201 | 31353 ft | 491 kts | 161° |
| 2026-05-08 13:06 | 47.60260 | 3.08174 | 31635 ft | 491 kts | 161° |
| 2026-05-08 13:06 | 47.57119 | 3.10142 | 31911 ft | 490 kts | 161° |
| 2026-05-08 13:06 | 47.53979 | 3.12103 | 32159 ft | 489 kts | 161° |
| 2026-05-08 13:06 | 47.50889 | 3.14026 | 32458 ft | 488 kts | 161° |
| 2026-05-08 13:07 | 47.47766 | 3.15966 | 32747 ft | 487 kts | 161° |
| 2026-05-08 13:07 | 47.44642 | 3.17906 | 33030 ft | 486 kts | 161° |
| 2026-05-08 13:07 | 47.41527 | 3.19838 | 33291 ft | 486 kts | 161° |
| 2026-05-08 13:07 | 47.38409 | 3.21768 | 33559 ft | 485 kts | 161° |
| 2026-05-08 13:08 | 47.35306 | 3.23686 | 33846 ft | 484 kts | 161° |
| 2026-05-08 13:08 | 47.32196 | 3.25608 | 34092 ft | 483 kts | 161° |
| 2026-05-08 13:08 | 47.29104 | 3.27517 | 34340 ft | 482 kts | 161° |
| 2026-05-08 13:08 | 47.26013 | 3.29424 | 34586 ft | 481 kts | 161° |
| 2026-05-08 13:09 | 47.22932 | 3.31324 | 34834 ft | 479 kts | 161° |
| 2026-05-08 13:09 | 47.19862 | 3.33216 | 35071 ft | 478 kts | 161° |
| 2026-05-08 13:09 | 47.16796 | 3.35100 | 35290 ft | 477 kts | 161° |
| 2026-05-08 13:09 | 47.13735 | 3.36977 | 35512 ft | 476 kts | 161° |
| 2026-05-08 13:10 | 47.10684 | 3.38846 | 35722 ft | 475 kts | 161° |
| 2026-05-08 13:10 | 47.07635 | 3.40711 | 35932 ft | 474 kts | 161° |
| 2026-05-08 13:10 | 47.04642 | 3.42724 | 36126 ft | 476 kts | 152° |
| 2026-05-08 13:10 | 47.02003 | 3.45677 | 36314 ft | 481 kts | 136° |
| 2026-05-08 13:11 | 46.99931 | 3.49529 | 36465 ft | 483 kts | 125° |
| 2026-05-08 13:11 | 46.98071 | 3.53632 | 36606 ft | 483 kts | 124° |
| 2026-05-08 13:11 | 46.96223 | 3.57738 | 36767 ft | 483 kts | 124° |
| 2026-05-08 13:11 | 46.94385 | 3.61836 | 36935 ft | 482 kts | 124° |
| 2026-05-08 13:12 | 46.90702 | 3.70035 | 36964 ft | 481 kts | 125° |
| 2026-05-08 13:12 | 46.86996 | 3.78172 | 36991 ft | 481 kts | 125° |
| 2026-05-08 13:13 | 46.83221 | 3.86247 | 36987 ft | 481 kts | 127° |
| 2026-05-08 13:13 | 46.79334 | 3.94185 | 36990 ft | 481 kts | 127° |
| 2026-05-08 13:14 | 46.75427 | 4.02105 | 36997 ft | 481 kts | 127° |
| 2026-05-08 13:14 | 46.71551 | 4.10052 | 37003 ft | 481 kts | 127° |
| 2026-05-08 13:15 | 46.67687 | 4.18008 | 37004 ft | 481 kts | 127° |
| 2026-05-08 13:15 | 46.63812 | 4.25951 | 37005 ft | 481 kts | 127° |
| 2026-05-08 13:16 | 46.59924 | 4.33869 | 37006 ft | 481 kts | 127° |
| 2026-05-08 13:16 | 46.56030 | 4.41775 | 37004 ft | 481 kts | 127° |
| 2026-05-08 13:17 | 46.52135 | 4.49659 | 37010 ft | 481 kts | 127° |
| 2026-05-08 13:17 | 46.48260 | 4.57488 | 37014 ft | 480 kts | 127° |
| 2026-05-08 13:18 | 46.44363 | 4.65338 | 36991 ft | 481 kts | 127° |
| 2026-05-08 13:18 | 46.40453 | 4.73193 | 36997 ft | 481 kts | 127° |
| 2026-05-08 13:19 | 46.36533 | 4.81046 | 36999 ft | 481 kts | 128° |
| 2026-05-08 13:19 | 46.32612 | 4.88873 | 37005 ft | 481 kts | 128° |
| 2026-05-08 13:20 | 46.28682 | 4.96698 | 37006 ft | 480 kts | 128° |
| 2026-05-08 13:20 | 46.24758 | 5.04504 | 36983 ft | 480 kts | 128° |
| 2026-05-08 13:21 | 46.20822 | 5.12299 | 36987 ft | 481 kts | 128° |
| 2026-05-08 13:21 | 46.16872 | 5.20091 | 36997 ft | 481 kts | 128° |
| 2026-05-08 13:22 | 46.12927 | 5.27873 | 37004 ft | 481 kts | 128° |
| 2026-05-08 13:22 | 46.08973 | 5.35638 | 37002 ft | 481 kts | 128° |
| 2026-05-08 13:23 | 46.05041 | 5.43345 | 37008 ft | 481 kts | 128° |
| 2026-05-08 13:23 | 46.01075 | 5.51095 | 36996 ft | 481 kts | 128° |
| 2026-05-08 13:24 | 45.97102 | 5.58832 | 37006 ft | 481 kts | 129° |
| 2026-05-08 13:24 | 45.93121 | 5.66563 | 36999 ft | 481 kts | 129° |
| 2026-05-08 13:25 | 45.89134 | 5.74297 | 37000 ft | 482 kts | 129° |
| 2026-05-08 13:25 | 45.85150 | 5.82010 | 36995 ft | 481 kts | 129° |
| 2026-05-08 13:26 | 45.81149 | 5.89715 | 36974 ft | 482 kts | 129° |
| 2026-05-08 13:26 | 45.77134 | 5.97421 | 36986 ft | 483 kts | 129° |
| 2026-05-08 13:27 | 45.73114 | 6.05122 | 36996 ft | 483 kts | 129° |
| 2026-05-08 13:27 | 45.69092 | 6.12807 | 37001 ft | 483 kts | 129° |
| 2026-05-08 13:28 | 45.65062 | 6.20498 | 37005 ft | 483 kts | 129° |
| 2026-05-08 13:28 | 45.61043 | 6.28185 | 37016 ft | 482 kts | 129° |
| 2026-05-08 13:29 | 45.57052 | 6.35874 | 37005 ft | 484 kts | 129° |
| 2026-05-08 13:29 | 45.53027 | 6.43595 | 37021 ft | 488 kts | 129° |
| 2026-05-08 13:30 | 45.48937 | 6.51404 | 37022 ft | 494 kts | 129° |
| 2026-05-08 13:30 | 45.44797 | 6.59298 | 37033 ft | 499 kts | 129° |
| 2026-05-08 13:31 | 45.40632 | 6.67209 | 37029 ft | 500 kts | 129° |
| 2026-05-08 13:31 | 45.36467 | 6.75100 | 37049 ft | 499 kts | 129° |
| 2026-05-08 13:32 | 45.32282 | 6.83002 | 37065 ft | 501 kts | 129° |
| 2026-05-08 13:32 | 45.28086 | 6.90897 | 37071 ft | 501 kts | 129° |
| 2026-05-08 13:33 | 45.23455 | 6.98116 | 37083 ft | 497 kts | 139° |
| 2026-05-08 13:33 | 45.18496 | 7.04944 | 37104 ft | 496 kts | 139° |
| 2026-05-08 13:34 | 45.13510 | 7.11795 | 37083 ft | 496 kts | 139° |
| 2026-05-08 13:34 | 45.08958 | 7.19074 | 37084 ft | 501 kts | 127° |
| 2026-05-08 13:35 | 45.04965 | 7.27151 | 37086 ft | 501 kts | 127° |
| 2026-05-08 13:35 | 45.00953 | 7.35216 | 37093 ft | 502 kts | 127° |
| 2026-05-08 13:36 | 44.96662 | 7.42927 | 37096 ft | 497 kts | 138° |
| 2026-05-08 13:36 | 44.91738 | 7.49796 | 37085 ft | 497 kts | 139° |
| 2026-05-08 13:37 | 44.86822 | 7.56663 | 37088 ft | 498 kts | 139° |
| 2026-05-08 13:37 | 44.81896 | 7.63534 | 37102 ft | 498 kts | 139° |
| 2026-05-08 13:38 | 44.76963 | 7.70390 | 37111 ft | 498 kts | 139° |
| 2026-05-08 13:38 | 44.72030 | 7.77234 | 37094 ft | 499 kts | 139° |
| 2026-05-08 13:39 | 44.67080 | 7.84074 | 37102 ft | 499 kts | 139° |
| 2026-05-08 13:39 | 44.62121 | 7.90906 | 37104 ft | 499 kts | 139° |
| 2026-05-08 13:40 | 44.57166 | 7.97722 | 37085 ft | 499 kts | 139° |
| 2026-05-08 13:40 | 44.52208 | 8.04537 | 37096 ft | 499 kts | 139° |
| 2026-05-08 13:41 | 44.47246 | 8.11329 | 37097 ft | 498 kts | 139° |
| 2026-05-08 13:41 | 44.42289 | 8.18101 | 37096 ft | 498 kts | 139° |
| 2026-05-08 13:42 | 44.37338 | 8.24841 | 37081 ft | 498 kts | 139° |
| 2026-05-08 13:42 | 44.32374 | 8.31577 | 37080 ft | 497 kts | 139° |
| 2026-05-08 13:43 | 44.27410 | 8.38306 | 37036 ft | 497 kts | 140° |
| 2026-05-08 13:43 | 44.22439 | 8.45033 | 37047 ft | 498 kts | 140° |
| 2026-05-08 13:44 | 44.17462 | 8.51743 | 37047 ft | 498 kts | 140° |
| 2026-05-08 13:44 | 44.12473 | 8.58449 | 37041 ft | 498 kts | 140° |
| 2026-05-08 13:45 | 44.07521 | 8.65096 | 37017 ft | 499 kts | 140° |
| 2026-05-08 13:45 | 44.02518 | 8.71786 | 37024 ft | 499 kts | 140° |
| 2026-05-08 13:46 | 43.97519 | 8.78467 | 37043 ft | 499 kts | 140° |
| 2026-05-08 13:46 | 43.92514 | 8.85138 | 37032 ft | 499 kts | 140° |
| 2026-05-08 13:47 | 43.87505 | 8.91794 | 37014 ft | 499 kts | 140° |
| 2026-05-08 13:47 | 43.82482 | 8.98447 | 37014 ft | 500 kts | 140° |
| 2026-05-08 13:48 | 43.78270 | 9.04020 | 37022 ft | 500 kts | 140° |
| 2026-05-08 13:48 | 43.73265 | 9.10623 | 37023 ft | 500 kts | 141° |
| 2026-05-08 13:49 | 43.68226 | 9.17255 | 37028 ft | 500 kts | 141° |
| 2026-05-08 13:49 | 43.63191 | 9.23880 | 37016 ft | 500 kts | 141° |
| 2026-05-08 13:50 | 43.58150 | 9.30489 | 37020 ft | 500 kts | 141° |
| 2026-05-08 13:50 | 43.53101 | 9.37071 | 37023 ft | 500 kts | 141° |
| 2026-05-08 13:51 | 43.48050 | 9.43647 | 37021 ft | 500 kts | 141° |
| 2026-05-08 13:51 | 43.42998 | 9.50223 | 36984 ft | 500 kts | 141° |
| 2026-05-08 13:52 | 43.37939 | 9.56791 | 36990 ft | 500 kts | 141° |
| 2026-05-08 13:52 | 43.32871 | 9.63354 | 37000 ft | 501 kts | 141° |
| 2026-05-08 13:53 | 43.27803 | 9.69899 | 37003 ft | 501 kts | 141° |
| 2026-05-08 13:53 | 43.22730 | 9.76431 | 37007 ft | 500 kts | 141° |
| 2026-05-08 13:54 | 43.17646 | 9.82959 | 36991 ft | 501 kts | 141° |
| 2026-05-08 13:54 | 43.12716 | 9.89697 | 37006 ft | 505 kts | 131° |
| 2026-05-08 13:55 | 43.08515 | 9.97439 | 37004 ft | 507 kts | 130° |
| 2026-05-08 13:56 | 43.02248 | 10.09090 | 36996 ft | 507 kts | 130° |
| 2026-05-08 13:56 | 42.98070 | 10.16832 | 36993 ft | 507 kts | 130° |
| 2026-05-08 13:57 | 42.93899 | 10.24524 | 36971 ft | 507 kts | 130° |
| 2026-05-08 13:57 | 42.91787 | 10.28399 | 36148 ft | 514 kts | 130° |
| 2026-05-08 13:57 | 42.89637 | 10.32330 | 35168 ft | 516 kts | 130° |
| 2026-05-08 13:57 | 42.87518 | 10.36219 | 34831 ft | 505 kts | 130° |
| 2026-05-08 13:58 | 42.85442 | 10.40033 | 34382 ft | 499 kts | 131° |
| 2026-05-08 13:58 | 42.83366 | 10.43833 | 33431 ft | 503 kts | 131° |
| 2026-05-08 13:58 | 42.81260 | 10.47661 | 32544 ft | 506 kts | 131° |
| 2026-05-08 13:58 | 42.79154 | 10.51495 | 31850 ft | 504 kts | 131° |
| 2026-05-08 13:59 | 42.77065 | 10.55318 | 31234 ft | 501 kts | 131° |
| 2026-05-08 13:59 | 42.74987 | 10.59130 | 30340 ft | 504 kts | 130° |
| 2026-05-08 13:59 | 42.72890 | 10.62960 | 29527 ft | 504 kts | 130° |
| 2026-05-08 13:59 | 42.70849 | 10.66820 | 29014 ft | 501 kts | 128° |
| 2026-05-08 14:00 | 42.68950 | 10.70739 | 28424 ft | 495 kts | 125° |
| 2026-05-08 14:00 | 42.67162 | 10.74701 | 27870 ft | 489 kts | 124° |
| 2026-05-08 14:00 | 42.65441 | 10.78661 | 27298 ft | 483 kts | 123° |
| 2026-05-08 14:00 | 42.63748 | 10.82566 | 26745 ft | 477 kts | 123° |
| 2026-05-08 14:01 | 42.62061 | 10.86389 | 26340 ft | 467 kts | 124° |
| 2026-05-08 14:01 | 42.60365 | 10.90145 | 25696 ft | 464 kts | 124° |
| 2026-05-08 14:01 | 42.58676 | 10.93816 | 25366 ft | 454 kts | 124° |
| 2026-05-08 14:01 | 42.57013 | 10.97400 | 24942 ft | 446 kts | 125° |
| 2026-05-08 14:02 | 42.55366 | 11.00930 | 24496 ft | 440 kts | 125° |
| 2026-05-08 14:02 | 42.53742 | 11.04408 | 24045 ft | 433 kts | 124° |
| 2026-05-08 14:02 | 42.52143 | 11.07841 | 23597 ft | 428 kts | 124° |
| 2026-05-08 14:02 | 42.50568 | 11.11228 | 23099 ft | 422 kts | 124° |
| 2026-05-08 14:03 | 42.49011 | 11.14572 | 22570 ft | 418 kts | 124° |
| 2026-05-08 14:03 | 42.47468 | 11.17886 | 22056 ft | 414 kts | 124° |
| 2026-05-08 14:03 | 42.45932 | 11.21187 | 21460 ft | 414 kts | 124° |
| 2026-05-08 14:03 | 42.44584 | 11.24613 | 20924 ft | 413 kts | 114° |
| 2026-05-08 14:04 | 42.43741 | 11.28349 | 20268 ft | 416 kts | 101° |
| 2026-05-08 14:04 | 42.43327 | 11.32179 | 20089 ft | 405 kts | 98° |
| 2026-05-08 14:04 | 42.42928 | 11.35893 | 19884 ft | 394 kts | 99° |
| 2026-05-08 14:04 | 42.42517 | 11.39520 | 19490 ft | 382 kts | 99° |
| 2026-05-08 14:05 | 42.42116 | 11.42964 | 19272 ft | 361 kts | 99° |
| 2026-05-08 14:05 | 42.41731 | 11.46268 | 18762 ft | 352 kts | 99° |
| 2026-05-08 14:05 | 42.41353 | 11.49505 | 18164 ft | 346 kts | 99° |
| 2026-05-08 14:05 | 42.40962 | 11.52695 | 17473 ft | 340 kts | 104° |
| 2026-05-08 14:06 | 42.40129 | 11.55639 | 16813 ft | 333 kts | 122° |
| 2026-05-08 14:06 | 42.38721 | 11.58074 | 16153 ft | 326 kts | 139° |
| 2026-05-08 14:06 | 42.36890 | 11.59813 | 15531 ft | 319 kts | 155° |
| 2026-05-08 14:06 | 42.34848 | 11.60855 | 15110 ft | 306 kts | 162° |
| 2026-05-08 14:07 | 42.32877 | 11.61763 | 14741 ft | 297 kts | 162° |
| 2026-05-08 14:07 | 42.30894 | 11.62687 | 14258 ft | 302 kts | 162° |
| 2026-05-08 14:07 | 42.28911 | 11.63613 | 13946 ft | 301 kts | 162° |
| 2026-05-08 14:07 | 42.26958 | 11.64521 | 13549 ft | 302 kts | 162° |
| 2026-05-08 14:08 | 42.24963 | 11.65438 | 13066 ft | 304 kts | 162° |
| 2026-05-08 14:08 | 42.22968 | 11.66313 | 12590 ft | 298 kts | 163° |
| 2026-05-08 14:08 | 42.21007 | 11.67155 | 12131 ft | 294 kts | 163° |
| 2026-05-08 14:08 | 42.19059 | 11.67984 | 11676 ft | 293 kts | 162° |
| 2026-05-08 14:09 | 42.17118 | 11.68810 | 11227 ft | 292 kts | 162° |
| 2026-05-08 14:09 | 42.15179 | 11.69640 | 10794 ft | 294 kts | 162° |
| 2026-05-08 14:09 | 42.13226 | 11.70478 | 10354 ft | 295 kts | 162° |
| 2026-05-08 14:09 | 42.11266 | 11.71315 | 9925 ft | 296 kts | 162° |
| 2026-05-08 14:10 | 42.09312 | 11.72150 | 9457 ft | 291 kts | 161° |
| 2026-05-08 14:10 | 42.07414 | 11.73048 | 8997 ft | 286 kts | 151° |
| 2026-05-08 14:10 | 42.05990 | 11.74810 | 8538 ft | 280 kts | 117° |
| 2026-05-08 14:10 | 42.05541 | 11.77298 | 8097 ft | 275 kts | 84° |
| 2026-05-08 14:11 | 42.05977 | 11.79809 | 7661 ft | 278 kts | 72° |
| 2026-05-08 14:11 | 42.06560 | 11.82287 | 7221 ft | 278 kts | 71° |
| 2026-05-08 14:11 | 42.07157 | 11.84761 | 6781 ft | 277 kts | 71° |
| 2026-05-08 14:11 | 42.07750 | 11.87198 | 6366 ft | 272 kts | 71° |
| 2026-05-08 14:12 | 42.08339 | 11.89616 | 5995 ft | 271 kts | 71° |
| 2026-05-08 14:12 | 42.08924 | 11.92017 | 5623 ft | 269 kts | 71° |
| 2026-05-08 14:12 | 42.09505 | 11.94408 | 5250 ft | 268 kts | 71° |
| 2026-05-08 14:12 | 42.09919 | 11.96831 | 4900 ft | 266 kts | 87° |
| 2026-05-08 14:13 | 42.09637 | 11.99283 | 4615 ft | 267 kts | 107° |
| 2026-05-08 14:13 | 42.09024 | 12.01642 | 4316 ft | 266 kts | 108° |
| 2026-05-08 14:13 | 42.08404 | 12.03978 | 4022 ft | 265 kts | 108° |
| 2026-05-08 14:13 | 42.07780 | 12.06309 | 3722 ft | 265 kts | 108° |
| 2026-05-08 14:14 | 42.07156 | 12.08636 | 3442 ft | 264 kts | 108° |
| 2026-05-08 14:14 | 42.06537 | 12.10955 | 3213 ft | 261 kts | 109° |
| 2026-05-08 14:14 | 42.05675 | 12.12996 | 3174 ft | 244 kts | 128° |
| 2026-05-08 14:14 | 42.04553 | 12.14653 | 3191 ft | 238 kts | 131° |
| 2026-05-08 14:15 | 42.03438 | 12.16283 | 3151 ft | 237 kts | 131° |
| 2026-05-08 14:15 | 42.02325 | 12.17908 | 2973 ft | 236 kts | 132° |
| 2026-05-08 14:15 | 42.01036 | 12.19204 | 2670 ft | 227 kts | 156° |
| 2026-05-08 14:15 | 41.99590 | 12.19846 | 2561 ft | 213 kts | 161° |
| 2026-05-08 14:16 | 41.98183 | 12.20440 | 2497 ft | 208 kts | 162° |
| 2026-05-08 14:16 | 41.96820 | 12.21016 | 2469 ft | 201 kts | 162° |
| 2026-05-08 14:16 | 41.95520 | 12.21563 | 2240 ft | 194 kts | 162° |
| 2026-05-08 14:16 | 41.94263 | 12.22091 | 1989 ft | 188 kts | 162° |
| 2026-05-08 14:17 | 41.93060 | 12.22597 | 1756 ft | 177 kts | 162° |
| 2026-05-08 14:17 | 41.91939 | 12.23068 | 1539 ft | 160 kts | 162° |
| 2026-05-08 14:17 | 41.90914 | 12.23498 | 1332 ft | 151 kts | 162° |
| 2026-05-08 14:17 | 41.89922 | 12.23912 | 1120 ft | 147 kts | 162° |
| 2026-05-08 14:18 | 41.88956 | 12.24316 | 928 ft | 144 kts | 162° |
| 2026-05-08 14:18 | 41.88006 | 12.24717 | 751 ft | 142 kts | 162° |
| 2026-05-08 14:18 | 41.87074 | 12.25119 | 583 ft | 140 kts | 162° |
| 2026-05-08 14:18 | 41.86152 | 12.25512 | 387 ft | 139 kts | 163° |
| 2026-05-08 14:19 | 41.85234 | 12.25889 | 189 ft | 138 kts | 163° |
| 2026-05-08 14:19 | 41.84327 | 12.26265 | 33 ft | 131 kts | 163° |
| 2026-05-08 14:19 | 41.83566 | 12.26583 | 16 ft | 92 kts | 162° |
| 2026-05-08 14:19 | 41.83093 | 12.26781 | 15 ft | 58 kts | 163° |
| 2026-05-08 14:20 | 41.82793 | 12.26873 | 16 ft | 31 kts | 180° |
| 2026-05-08 14:20 | 41.82585 | 12.26835 | 15 ft | 28 kts | 192° |
| 2026-05-08 14:20 | 41.82395 | 12.26781 | 15 ft | 28 kts | 188° |
| 2026-05-08 14:20 | 41.82211 | 12.26827 | 16 ft | 27 kts | 162° |
| 2026-05-08 14:21 | 41.82034 | 12.26901 | 15 ft | 26 kts | 163° |
| 2026-05-08 14:21 | 41.81858 | 12.26974 | 15 ft | 27 kts | 162° |
| 2026-05-08 14:21 | 41.81677 | 12.27050 | 16 ft | 28 kts | 162° |
| 2026-05-08 14:21 | 41.81491 | 12.27129 | 15 ft | 28 kts | 162° |
| 2026-05-08 14:22 | 41.81300 | 12.27209 | 16 ft | 29 kts | 162° |
| 2026-05-08 14:22 | 41.81106 | 12.27291 | 15 ft | 30 kts | 162° |
| 2026-05-08 14:22 | 41.80910 | 12.27352 | 15 ft | 26 kts | 184° |
| 2026-05-08 14:22 | 41.80736 | 12.27312 | 15 ft | 24 kts | 193° |
| 2026-05-08 14:23 | 41.80636 | 12.27149 | 15 ft | 25 kts | 250° |
| 2026-05-08 14:23 | 41.80575 | 12.26928 | 15 ft | 26 kts | 250° |
| 2026-05-08 14:23 | 41.80510 | 12.26693 | 16 ft | 27 kts | 249° |
| 2026-05-08 14:23 | 41.80442 | 12.26457 | 17 ft | 18 kts | 248° |
| 2026-05-08 14:24 | 41.80375 | 12.26362 | 15 ft | 15 kts | 186° |
| 2026-05-08 14:24 | 41.80272 | 12.26406 | 15 ft | 17 kts | 161° |
| 2026-05-08 14:24 | 41.80158 | 12.26370 | 15 ft | 18 kts | 206° |
| 2026-05-08 14:24 | 41.80042 | 12.26297 | 16 ft | 18 kts | 203° |
| 2026-05-08 14:25 | 41.79923 | 12.26224 | 15 ft | 20 kts | 205° |
| 2026-05-08 14:25 | 41.79803 | 12.26151 | 15 ft | 17 kts | 205° |
| 2026-05-08 14:25 | 41.79726 | 12.26111 | 15 ft | 11 kts | 195° |
| 2026-05-08 14:25 | 41.79656 | 12.26071 | 16 ft | 11 kts | 206° |
| 2026-05-08 14:26 | 41.79596 | 12.26031 | 15 ft | 7 kts | 206° |
| 2026-05-08 14:26 | 41.79592 | 12.26006 | 15 ft | 4 kts | 281° |
| 2026-05-08 14:26 | 41.79603 | 12.25972 | 15 ft | 4 kts | 298° |
| 2026-05-08 14:26 | 41.79612 | 12.25949 | 17 ft | 1 kts | 295° |
| 2026-05-08 14:27 | 41.79613 | 12.25945 | 17 ft | 1 kts | 295° |
| 2026-05-08 14:27 | 41.79615 | 12.25940 | 16 ft | 0 kts | 294° |